sensor_id;sensor_type;location;lat;lon;timestamp;pressure;altitude;pressure_sealevel;temperature;humidity
2681;BME280;1350;42.134;24.708;2023-07-31T00:01:07;98759.38;;;24.58;62.78
2681;BME280;1350;42.134;24.708;2023-07-31T00:03:34;98759.00;;;24.47;63.33
2681;BME280;1350;42.134;24.708;2023-07-31T00:06:02;98768.81;;;24.62;62.96
2681;BME280;1350;42.134;24.708;2023-07-31T00:08:29;98765.75;;;24.65;63.06
2681;BME280;1350;42.134;24.708;2023-07-31T00:10:56;98752.00;;;24.81;62.12
2681;BME280;1350;42.134;24.708;2023-07-31T00:13:22;98756.47;;;24.89;62.01
2681;BME280;1350;42.134;24.708;2023-07-31T00:15:49;98765.69;;;24.95;62.12
2681;BME280;1350;42.134;24.708;2023-07-31T00:18:16;98774.81;;;25.08;61.38
2681;BME280;1350;42.134;24.708;2023-07-31T00:20:43;98777.59;;;24.94;61.92
2681;BME280;1350;42.134;24.708;2023-07-31T00:23:11;98768.97;;;24.90;62.06
2681;BME280;1350;42.134;24.708;2023-07-31T00:25:37;98768.25;;;24.81;62.41
2681;BME280;1350;42.134;24.708;2023-07-31T00:28:04;98777.69;;;24.85;62.97
2681;BME280;1350;42.134;24.708;2023-07-31T00:30:31;98781.50;;;24.91;62.62
2681;BME280;1350;42.134;24.708;2023-07-31T00:32:58;98775.53;;;24.81;62.76
2681;BME280;1350;42.134;24.708;2023-07-31T00:35:24;98767.78;;;24.78;62.74
2681;BME280;1350;42.134;24.708;2023-07-31T00:37:51;98773.13;;;24.71;63.20
2681;BME280;1350;42.134;24.708;2023-07-31T00:40:19;98772.28;;;24.71;63.98
2681;BME280;1350;42.134;24.708;2023-07-31T00:42:46;98766.94;;;24.77;63.26
2681;BME280;1350;42.134;24.708;2023-07-31T00:45:12;98778.06;;;24.68;63.86
2681;BME280;1350;42.134;24.708;2023-07-31T00:47:39;98778.41;;;24.65;64.33
2681;BME280;1350;42.134;24.708;2023-07-31T00:50:07;98781.72;;;24.75;64.35
2681;BME280;1350;42.134;24.708;2023-07-31T00:52:35;98784.53;;;24.67;64.68
2681;BME280;1350;42.134;24.708;2023-07-31T00:55:03;98786.22;;;24.68;64.76
2681;BME280;1350;42.134;24.708;2023-07-31T00:57:32;98769.38;;;24.72;64.20
2681;BME280;1350;42.134;24.708;2023-07-31T01:00:00;98779.41;;;24.72;64.55
2681;BME280;1350;42.134;24.708;2023-07-31T01:02:26;98782.50;;;24.69;64.76
2681;BME280;1350;42.134;24.708;2023-07-31T01:04:53;98791.00;;;24.66;65.22
2681;BME280;1350;42.134;24.708;2023-07-31T01:07:27;98794.06;;;24.63;65.36
2681;BME280;1350;42.134;24.708;2023-07-31T01:10:03;98799.28;;;24.79;65.10
2681;BME280;1350;42.134;24.708;2023-07-31T01:12:34;98789.78;;;24.83;64.92
2681;BME280;1350;42.134;24.708;2023-07-31T01:15:04;98796.78;;;24.77;65.48
2681;BME280;1350;42.134;24.708;2023-07-31T01:17:31;98797.41;;;24.94;64.89
2681;BME280;1350;42.134;24.708;2023-07-31T01:20:02;98793.38;;;25.05;64.38
2681;BME280;1350;42.134;24.708;2023-07-31T01:22:46;98789.13;;;25.17;64.69
2681;BME280;1350;42.134;24.708;2023-07-31T01:25:21;98799.88;;;25.25;63.33
2681;BME280;1350;42.134;24.708;2023-07-31T01:28:02;98795.94;;;25.13;64.08
2681;BME280;1350;42.134;24.708;2023-07-31T01:30:32;98793.50;;;24.82;65.00
2681;BME280;1350;42.134;24.708;2023-07-31T01:33:01;98793.59;;;24.74;65.52
2681;BME280;1350;42.134;24.708;2023-07-31T01:35:32;98793.31;;;24.54;66.08
2681;BME280;1350;42.134;24.708;2023-07-31T01:37:59;98793.97;;;24.56;66.94
2681;BME280;1350;42.134;24.708;2023-07-31T01:40:25;98798.63;;;24.92;66.54
2681;BME280;1350;42.134;24.708;2023-07-31T01:42:52;98794.66;;;25.09;65.48
2681;BME280;1350;42.134;24.708;2023-07-31T01:45:20;98791.88;;;25.02;65.44
2681;BME280;1350;42.134;24.708;2023-07-31T01:47:47;98783.13;;;24.85;65.54
2681;BME280;1350;42.134;24.708;2023-07-31T01:50:14;98787.78;;;24.62;66.64
2681;BME280;1350;42.134;24.708;2023-07-31T01:52:40;98783.41;;;24.32;67.87
2681;BME280;1350;42.134;24.708;2023-07-31T01:55:07;98786.09;;;24.47;68.67
2681;BME280;1350;42.134;24.708;2023-07-31T01:57:36;98780.59;;;24.55;68.47
2681;BME280;1350;42.134;24.708;2023-07-31T02:00:03;98780.88;;;24.74;68.00
2681;BME280;1350;42.134;24.708;2023-07-31T02:02:32;98783.28;;;24.99;67.70
2681;BME280;1350;42.134;24.708;2023-07-31T02:04:58;98786.28;;;24.89;66.56
2681;BME280;1350;42.134;24.708;2023-07-31T02:07:25;98788.28;;;24.66;66.94
2681;BME280;1350;42.134;24.708;2023-07-31T02:09:52;98795.25;;;24.60;67.08
2681;BME280;1350;42.134;24.708;2023-07-31T02:12:19;98798.34;;;24.57;66.46
2681;BME280;1350;42.134;24.708;2023-07-31T02:14:45;98795.72;;;24.64;66.23
2681;BME280;1350;42.134;24.708;2023-07-31T02:17:12;98788.34;;;24.87;65.86
2681;BME280;1350;42.134;24.708;2023-07-31T02:19:40;98780.56;;;24.99;64.78
2681;BME280;1350;42.134;24.708;2023-07-31T02:22:07;98786.09;;;24.91;65.33
2681;BME280;1350;42.134;24.708;2023-07-31T02:24:34;98776.94;;;24.62;67.44
2681;BME280;1350;42.134;24.708;2023-07-31T02:27:01;98780.03;;;24.59;69.04
2681;BME280;1350;42.134;24.708;2023-07-31T02:29:27;98781.63;;;24.54;71.10
2681;BME280;1350;42.134;24.708;2023-07-31T02:31:54;98776.28;;;24.60;71.42
2681;BME280;1350;42.134;24.708;2023-07-31T02:34:21;98773.69;;;24.67;75.50
2681;BME280;1350;42.134;24.708;2023-07-31T02:36:49;98763.75;;;24.74;78.21
2681;BME280;1350;42.134;24.708;2023-07-31T02:39:15;98764.72;;;24.66;82.27
2681;BME280;1350;42.134;24.708;2023-07-31T02:41:42;98759.81;;;24.62;86.03
2681;BME280;1350;42.134;24.708;2023-07-31T02:44:09;98765.19;;;24.55;88.89
2681;BME280;1350;42.134;24.708;2023-07-31T02:46:39;98761.34;;;24.64;88.83
2681;BME280;1350;42.134;24.708;2023-07-31T02:49:06;98753.75;;;24.74;88.44
2681;BME280;1350;42.134;24.708;2023-07-31T02:51:33;98754.03;;;24.79;89.03
2681;BME280;1350;42.134;24.708;2023-07-31T02:54:01;98756.00;;;24.71;89.67
2681;BME280;1350;42.134;24.708;2023-07-31T02:56:27;98758.34;;;24.59;91.05
2681;BME280;1350;42.134;24.708;2023-07-31T02:58:54;98749.34;;;24.59;91.86
2681;BME280;1350;42.134;24.708;2023-07-31T03:01:21;98756.09;;;24.63;92.95
2681;BME280;1350;42.134;24.708;2023-07-31T03:03:47;98754.56;;;24.89;92.61
2681;BME280;1350;42.134;24.708;2023-07-31T03:06:14;98761.81;;;25.04;92.56
2681;BME280;1350;42.134;24.708;2023-07-31T03:08:40;98757.06;;;25.06;93.02
2681;BME280;1350;42.134;24.708;2023-07-31T03:11:08;98752.75;;;24.75;100.00
2681;BME280;1350;42.134;24.708;2023-07-31T03:13:35;98760.22;;;24.73;100.00
2681;BME280;1350;42.134;24.708;2023-07-31T03:16:01;98756.38;;;24.53;100.00
2681;BME280;1350;42.134;24.708;2023-07-31T03:18:28;98759.28;;;24.37;100.00
2681;BME280;1350;42.134;24.708;2023-07-31T03:20:55;98755.72;;;24.22;100.00
2681;BME280;1350;42.134;24.708;2023-07-31T03:23:21;98757.50;;;24.15;100.00
2681;BME280;1350;42.134;24.708;2023-07-31T03:25:58;98758.81;;;24.05;100.00
2681;BME280;1350;42.134;24.708;2023-07-31T03:28:26;98765.81;;;24.28;100.00
2681;BME280;1350;42.134;24.708;2023-07-31T03:30:53;98777.25;;;24.67;100.00
2681;BME280;1350;42.134;24.708;2023-07-31T03:33:20;98780.59;;;25.20;100.00
2681;BME280;1350;42.134;24.708;2023-07-31T03:35:46;98787.00;;;25.69;100.00
2681;BME280;1350;42.134;24.708;2023-07-31T03:38:13;98791.34;;;25.91;100.00
2681;BME280;1350;42.134;24.708;2023-07-31T03:40:40;98797.72;;;25.77;100.00
2681;BME280;1350;42.134;24.708;2023-07-31T03:43:07;98802.31;;;25.20;100.00
2681;BME280;1350;42.134;24.708;2023-07-31T03:45:35;98804.81;;;24.71;100.00
2681;BME280;1350;42.134;24.708;2023-07-31T03:48:03;98825.13;;;24.09;100.00
2681;BME280;1350;42.134;24.708;2023-07-31T03:50:30;98817.94;;;23.56;100.00
2681;BME280;1350;42.134;24.708;2023-07-31T03:52:57;98824.78;;;23.44;100.00
2681;BME280;1350;42.134;24.708;2023-07-31T03:55:23;98819.78;;;23.33;100.00
2681;BME280;1350;42.134;24.708;2023-07-31T03:57:50;98827.53;;;23.36;100.00
2681;BME280;1350;42.134;24.708;2023-07-31T04:00:17;98822.66;;;23.32;100.00
2681;BME280;1350;42.134;24.708;2023-07-31T04:02:45;98820.47;;;23.35;100.00
2681;BME280;1350;42.134;24.708;2023-07-31T04:05:12;98828.03;;;23.40;100.00
2681;BME280;1350;42.134;24.708;2023-07-31T04:07:38;98832.53;;;23.24;100.00
2681;BME280;1350;42.134;24.708;2023-07-31T04:10:06;98834.56;;;23.14;100.00
2681;BME280;1350;42.134;24.708;2023-07-31T04:12:33;98828.00;;;23.17;100.00
2681;BME280;1350;42.134;24.708;2023-07-31T04:14:59;98833.41;;;23.17;100.00
2681;BME280;1350;42.134;24.708;2023-07-31T04:17:26;98838.41;;;23.28;100.00
2681;BME280;1350;42.134;24.708;2023-07-31T04:19:54;98843.78;;;23.36;100.00
2681;BME280;1350;42.134;24.708;2023-07-31T04:22:21;98843.69;;;23.52;100.00
2681;BME280;1350;42.134;24.708;2023-07-31T04:24:47;98841.25;;;23.57;100.00
2681;BME280;1350;42.134;24.708;2023-07-31T04:27:14;98844.41;;;23.46;100.00
2681;BME280;1350;42.134;24.708;2023-07-31T04:29:41;98842.69;;;23.45;100.00
2681;BME280;1350;42.134;24.708;2023-07-31T04:32:09;98840.13;;;23.52;100.00
2681;BME280;1350;42.134;24.708;2023-07-31T04:34:36;98848.97;;;23.46;100.00
2681;BME280;1350;42.134;24.708;2023-07-31T04:37:04;98846.66;;;23.35;100.00
2681;BME280;1350;42.134;24.708;2023-07-31T04:39:31;98851.81;;;23.21;100.00
2681;BME280;1350;42.134;24.708;2023-07-31T04:41:58;98852.50;;;23.15;100.00
2681;BME280;1350;42.134;24.708;2023-07-31T04:44:24;98846.06;;;23.24;100.00
2681;BME280;1350;42.134;24.708;2023-07-31T04:46:51;98845.59;;;23.44;100.00
2681;BME280;1350;42.134;24.708;2023-07-31T04:49:18;98845.38;;;23.53;100.00
2681;BME280;1350;42.134;24.708;2023-07-31T04:51:45;98846.22;;;23.76;100.00
2681;BME280;1350;42.134;24.708;2023-07-31T04:54:13;98848.31;;;23.66;100.00
2681;BME280;1350;42.134;24.708;2023-07-31T04:56:40;98843.91;;;23.65;100.00
2681;BME280;1350;42.134;24.708;2023-07-31T04:59:07;98838.69;;;23.64;100.00
2681;BME280;1350;42.134;24.708;2023-07-31T05:01:33;98850.31;;;23.72;100.00
2681;BME280;1350;42.134;24.708;2023-07-31T05:04:00;98851.81;;;23.75;100.00
2681;BME280;1350;42.134;24.708;2023-07-31T05:06:27;98845.84;;;23.79;100.00
2681;BME280;1350;42.134;24.708;2023-07-31T05:08:54;98843.81;;;23.81;100.00
2681;BME280;1350;42.134;24.708;2023-07-31T05:11:22;98846.56;;;23.96;100.00
2681;BME280;1350;42.134;24.708;2023-07-31T05:13:49;98847.19;;;24.06;100.00
2681;BME280;1350;42.134;24.708;2023-07-31T05:16:15;98852.41;;;24.07;100.00
2681;BME280;1350;42.134;24.708;2023-07-31T05:18:42;98846.56;;;23.96;100.00
2681;BME280;1350;42.134;24.708;2023-07-31T05:21:09;98843.00;;;23.95;100.00
2681;BME280;1350;42.134;24.708;2023-07-31T05:23:36;98845.13;;;24.08;100.00
2681;BME280;1350;42.134;24.708;2023-07-31T05:26:03;98853.16;;;24.16;100.00
2681;BME280;1350;42.134;24.708;2023-07-31T05:28:34;98850.50;;;24.30;100.00
2681;BME280;1350;42.134;24.708;2023-07-31T05:31:01;98865.78;;;24.23;100.00
2681;BME280;1350;42.134;24.708;2023-07-31T05:33:28;98858.81;;;24.43;100.00
2681;BME280;1350;42.134;24.708;2023-07-31T05:35:56;98858.00;;;24.43;100.00
2681;BME280;1350;42.134;24.708;2023-07-31T05:38:23;98867.69;;;24.37;100.00
2681;BME280;1350;42.134;24.708;2023-07-31T05:40:50;98869.47;;;24.45;100.00
2681;BME280;1350;42.134;24.708;2023-07-31T05:43:16;98871.44;;;24.51;100.00
2681;BME280;1350;42.134;24.708;2023-07-31T05:45:44;98873.56;;;24.92;100.00
2681;BME280;1350;42.134;24.708;2023-07-31T05:48:11;98869.59;;;25.24;100.00
2681;BME280;1350;42.134;24.708;2023-07-31T05:50:38;98874.28;;;25.87;100.00
2681;BME280;1350;42.134;24.708;2023-07-31T05:53:05;98871.53;;;26.50;100.00
2681;BME280;1350;42.134;24.708;2023-07-31T05:55:33;98876.75;;;27.13;100.00
2681;BME280;1350;42.134;24.708;2023-07-31T05:58:00;98871.09;;;27.62;99.72
2681;BME280;1350;42.134;24.708;2023-07-31T06:00:27;98867.34;;;27.63;96.03
2681;BME280;1350;42.134;24.708;2023-07-31T06:02:55;98875.84;;;28.20;93.86
2681;BME280;1350;42.134;24.708;2023-07-31T06:05:22;98873.34;;;28.58;88.54
2681;BME280;1350;42.134;24.708;2023-07-31T06:07:48;98873.94;;;28.79;85.49
2681;BME280;1350;42.134;24.708;2023-07-31T06:10:15;98870.94;;;29.13;83.25
2681;BME280;1350;42.134;24.708;2023-07-31T06:12:42;98879.31;;;29.25;80.58
2681;BME280;1350;42.134;24.708;2023-07-31T06:15:09;98877.50;;;29.50;79.76
2681;BME280;1350;42.134;24.708;2023-07-31T06:17:36;98875.03;;;29.42;80.43
2681;BME280;1350;42.134;24.708;2023-07-31T06:20:06;98869.94;;;29.90;79.27
2681;BME280;1350;42.134;24.708;2023-07-31T06:22:33;98875.19;;;30.53;76.72
2681;BME280;1350;42.134;24.708;2023-07-31T06:25:00;98875.34;;;30.83;75.44
2681;BME280;1350;42.134;24.708;2023-07-31T06:27:27;98873.19;;;31.03;72.32
2681;BME280;1350;42.134;24.708;2023-07-31T06:29:53;98870.28;;;31.41;71.16
2681;BME280;1350;42.134;24.708;2023-07-31T06:32:20;98874.38;;;31.13;71.32
2681;BME280;1350;42.134;24.708;2023-07-31T06:34:47;98872.72;;;31.31;70.64
2681;BME280;1350;42.134;24.708;2023-07-31T06:37:16;98876.38;;;31.43;70.06
2681;BME280;1350;42.134;24.708;2023-07-31T06:39:43;98863.84;;;31.47;70.39
2681;BME280;1350;42.134;24.708;2023-07-31T06:42:09;98860.97;;;31.24;69.45
2681;BME280;1350;42.134;24.708;2023-07-31T06:44:36;98868.94;;;31.61;68.41
2681;BME280;1350;42.134;24.708;2023-07-31T06:47:03;98865.31;;;32.08;65.70
2681;BME280;1350;42.134;24.708;2023-07-31T06:49:30;98867.03;;;32.21;63.00
2681;BME280;1350;42.134;24.708;2023-07-31T06:51:57;98869.44;;;31.88;64.15
2681;BME280;1350;42.134;24.708;2023-07-31T06:54:25;98862.94;;;31.82;65.32
2681;BME280;1350;42.134;24.708;2023-07-31T06:56:51;98864.28;;;32.21;64.61
2681;BME280;1350;42.134;24.708;2023-07-31T06:59:18;98865.94;;;32.10;62.81
2681;BME280;1350;42.134;24.708;2023-07-31T07:01:45;98862.22;;;31.75;63.29
2681;BME280;1350;42.134;24.708;2023-07-31T07:04:11;98856.94;;;32.03;63.31
2681;BME280;1350;42.134;24.708;2023-07-31T07:06:38;98859.97;;;32.13;62.13
2681;BME280;1350;42.134;24.708;2023-07-31T07:09:05;98857.69;;;32.10;62.75
2681;BME280;1350;42.134;24.708;2023-07-31T07:11:34;98862.66;;;31.90;63.09
2681;BME280;1350;42.134;24.708;2023-07-31T07:14:02;98870.03;;;31.90;62.99
2681;BME280;1350;42.134;24.708;2023-07-31T07:16:29;98862.03;;;31.41;63.78
2681;BME280;1350;42.134;24.708;2023-07-31T07:18:58;98868.88;;;31.50;64.55
2681;BME280;1350;42.134;24.708;2023-07-31T07:21:24;98865.69;;;31.53;65.47
2681;BME280;1350;42.134;24.708;2023-07-31T07:23:51;98866.44;;;31.89;64.43
2681;BME280;1350;42.134;24.708;2023-07-31T07:26:18;98868.78;;;32.04;63.98
2681;BME280;1350;42.134;24.708;2023-07-31T07:28:46;98871.59;;;32.38;63.18
2681;BME280;1350;42.134;24.708;2023-07-31T07:31:13;98868.88;;;32.50;63.01
2681;BME280;1350;42.134;24.708;2023-07-31T07:33:39;98877.59;;;32.47;61.33
2681;BME280;1350;42.134;24.708;2023-07-31T07:36:06;98873.22;;;32.92;60.18
2681;BME280;1350;42.134;24.708;2023-07-31T07:38:35;98863.53;;;32.90;59.68
2681;BME280;1350;42.134;24.708;2023-07-31T07:41:02;98863.03;;;32.81;59.85
2681;BME280;1350;42.134;24.708;2023-07-31T07:43:28;98869.59;;;32.45;61.79
2681;BME280;1350;42.134;24.708;2023-07-31T07:45:56;98864.38;;;32.90;61.15
2681;BME280;1350;42.134;24.708;2023-07-31T07:48:23;98871.22;;;33.50;60.12
2681;BME280;1350;42.134;24.708;2023-07-31T07:50:50;98866.81;;;34.05;57.39
2681;BME280;1350;42.134;24.708;2023-07-31T07:53:17;98862.97;;;33.78;55.98
2681;BME280;1350;42.134;24.708;2023-07-31T07:55:43;98862.78;;;33.68;56.19
2681;BME280;1350;42.134;24.708;2023-07-31T07:58:10;98866.25;;;33.24;56.13
2681;BME280;1350;42.134;24.708;2023-07-31T08:00:37;98862.44;;;32.91;57.52
2681;BME280;1350;42.134;24.708;2023-07-31T08:03:06;98863.66;;;32.95;58.31
2681;BME280;1350;42.134;24.708;2023-07-31T08:05:33;98864.75;;;33.56;57.09
2681;BME280;1350;42.134;24.708;2023-07-31T08:08:01;98863.84;;;33.39;56.52
2681;BME280;1350;42.134;24.708;2023-07-31T08:10:28;98858.16;;;34.13;55.35
2681;BME280;1350;42.134;24.708;2023-07-31T08:12:55;98855.19;;;34.48;54.50
2681;BME280;1350;42.134;24.708;2023-07-31T08:15:22;98851.06;;;34.01;54.54
2681;BME280;1350;42.134;24.708;2023-07-31T08:17:59;98846.44;;;32.99;55.39
2681;BME280;1350;42.134;24.708;2023-07-31T08:20:30;98850.03;;;32.77;56.39
2681;BME280;1350;42.134;24.708;2023-07-31T08:23:10;98840.09;;;32.99;55.39
2681;BME280;1350;42.134;24.708;2023-07-31T08:25:37;98846.31;;;32.94;55.52
2681;BME280;1350;42.134;24.708;2023-07-31T08:28:05;98837.97;;;32.78;55.78
2681;BME280;1350;42.134;24.708;2023-07-31T08:30:33;98838.31;;;32.69;54.89
2681;BME280;1350;42.134;24.708;2023-07-31T08:33:01;98844.16;;;32.73;54.99
2681;BME280;1350;42.134;24.708;2023-07-31T08:35:29;98848.22;;;32.82;54.64
2681;BME280;1350;42.134;24.708;2023-07-31T08:37:56;98848.03;;;33.46;54.11
2681;BME280;1350;42.134;24.708;2023-07-31T08:40:23;98846.97;;;33.47;52.22
2681;BME280;1350;42.134;24.708;2023-07-31T08:42:53;98849.97;;;34.02;51.27
2681;BME280;1350;42.134;24.708;2023-07-31T08:45:25;98844.94;;;33.43;52.09
2681;BME280;1350;42.134;24.708;2023-07-31T08:47:52;98847.63;;;33.66;52.38
2681;BME280;1350;42.134;24.708;2023-07-31T08:50:20;98848.38;;;34.06;51.01
2681;BME280;1350;42.134;24.708;2023-07-31T08:52:51;98850.03;;;33.90;50.82
2681;BME280;1350;42.134;24.708;2023-07-31T08:55:29;98847.66;;;33.82;50.88
2681;BME280;1350;42.134;24.708;2023-07-31T08:57:57;98847.81;;;34.20;50.67
2681;BME280;1350;42.134;24.708;2023-07-31T09:00:25;98849.75;;;34.37;49.88
2681;BME280;1350;42.134;24.708;2023-07-31T09:02:57;98840.19;;;34.94;48.13
2681;BME280;1350;42.134;24.708;2023-07-31T09:05:29;98840.19;;;34.94;47.50
2681;BME280;1350;42.134;24.708;2023-07-31T09:07:57;98835.59;;;35.37;46.99
2681;BME280;1350;42.134;24.708;2023-07-31T09:10:24;98833.63;;;35.16;46.89
2681;BME280;1350;42.134;24.708;2023-07-31T09:12:51;98836.81;;;34.87;45.95
2681;BME280;1350;42.134;24.708;2023-07-31T09:15:18;98835.47;;;35.11;45.09
2681;BME280;1350;42.134;24.708;2023-07-31T09:17:45;98831.38;;;35.78;44.82
2681;BME280;1350;42.134;24.708;2023-07-31T09:20:16;98833.25;;;35.99;44.27
2681;BME280;1350;42.134;24.708;2023-07-31T09:22:44;98826.41;;;35.80;44.97
2681;BME280;1350;42.134;24.708;2023-07-31T09:25:16;98827.38;;;35.69;45.58
2681;BME280;1350;42.134;24.708;2023-07-31T09:27:47;98829.03;;;35.43;45.62
2681;BME280;1350;42.134;24.708;2023-07-31T09:30:14;98831.19;;;35.63;45.05
2681;BME280;1350;42.134;24.708;2023-07-31T09:32:42;98824.88;;;35.41;43.65
2681;BME280;1350;42.134;24.708;2023-07-31T09:35:19;98818.06;;;35.27;43.79
2681;BME280;1350;42.134;24.708;2023-07-31T09:37:51;98809.56;;;35.77;43.82
2681;BME280;1350;42.134;24.708;2023-07-31T09:40:32;98816.00;;;35.39;44.82
2681;BME280;1350;42.134;24.708;2023-07-31T09:43:00;98809.16;;;35.68;44.91
2681;BME280;1350;42.134;24.708;2023-07-31T09:45:28;98816.16;;;35.75;44.45
2681;BME280;1350;42.134;24.708;2023-07-31T09:47:56;98803.78;;;35.78;43.31
2681;BME280;1350;42.134;24.708;2023-07-31T09:50:24;98804.00;;;36.30;43.25
2681;BME280;1350;42.134;24.708;2023-07-31T09:52:51;98812.28;;;36.66;42.20
2681;BME280;1350;42.134;24.708;2023-07-31T09:55:19;98811.63;;;36.18;42.18
2681;BME280;1350;42.134;24.708;2023-07-31T09:57:48;98805.38;;;35.74;43.04
2681;BME280;1350;42.134;24.708;2023-07-31T10:00:16;98816.19;;;35.54;43.03
2681;BME280;1350;42.134;24.708;2023-07-31T10:02:46;98811.63;;;35.43;43.94
2681;BME280;1350;42.134;24.708;2023-07-31T10:05:14;98805.59;;;35.24;44.54
2681;BME280;1350;42.134;24.708;2023-07-31T10:07:45;98794.25;;;34.99;45.35
2681;BME280;1350;42.134;24.708;2023-07-31T10:10:13;98797.34;;;34.86;45.28
2681;BME280;1350;42.134;24.708;2023-07-31T10:12:41;98797.97;;;35.10;45.20
2681;BME280;1350;42.134;24.708;2023-07-31T10:15:11;98794.19;;;35.16;44.60
2681;BME280;1350;42.134;24.708;2023-07-31T10:17:39;98785.22;;;35.73;44.02
2681;BME280;1350;42.134;24.708;2023-07-31T10:20:07;98784.66;;;35.98;42.73
2681;BME280;1350;42.134;24.708;2023-07-31T10:22:35;98774.25;;;35.09;43.54
2681;BME280;1350;42.134;24.708;2023-07-31T10:25:02;98778.25;;;34.80;45.10
2681;BME280;1350;42.134;24.708;2023-07-31T10:27:30;98778.84;;;35.03;44.92
2681;BME280;1350;42.134;24.708;2023-07-31T10:29:58;98768.00;;;35.40;44.42
2681;BME280;1350;42.134;24.708;2023-07-31T10:32:28;98764.81;;;35.74;43.81
2681;BME280;1350;42.134;24.708;2023-07-31T10:34:55;98771.06;;;35.65;44.10
2681;BME280;1350;42.134;24.708;2023-07-31T10:37:23;98755.22;;;36.09;42.67
2681;BME280;1350;42.134;24.708;2023-07-31T10:39:58;98753.34;;;35.88;43.08
2681;BME280;1350;42.134;24.708;2023-07-31T10:42:30;98747.84;;;35.61;43.60
2681;BME280;1350;42.134;24.708;2023-07-31T10:44:59;98740.16;;;35.68;43.17
2681;BME280;1350;42.134;24.708;2023-07-31T10:47:27;98747.00;;;35.60;43.00
2681;BME280;1350;42.134;24.708;2023-07-31T10:50:18;98740.22;;;36.00;42.40
2681;BME280;1350;42.134;24.708;2023-07-31T10:52:49;98735.13;;;36.23;41.64
2681;BME280;1350;42.134;24.708;2023-07-31T10:55:28;98728.63;;;36.34;41.44
2681;BME280;1350;42.134;24.708;2023-07-31T10:58:04;98731.69;;;36.06;41.74
2681;BME280;1350;42.134;24.708;2023-07-31T11:00:32;98731.19;;;36.51;41.64
2681;BME280;1350;42.134;24.708;2023-07-31T11:03:02;98733.81;;;36.67;40.40
2681;BME280;1350;42.134;24.708;2023-07-31T11:05:43;98724.88;;;36.50;39.49
2681;BME280;1350;42.134;24.708;2023-07-31T11:08:12;98732.81;;;36.42;40.11
2681;BME280;1350;42.134;24.708;2023-07-31T11:10:38;98724.56;;;36.15;39.91
2681;BME280;1350;42.134;24.708;2023-07-31T11:13:05;98722.13;;;36.19;40.01
2681;BME280;1350;42.134;24.708;2023-07-31T11:15:32;98722.38;;;36.49;40.09
2681;BME280;1350;42.134;24.708;2023-07-31T11:18:02;98702.59;;;35.94;43.40
2681;BME280;1350;42.134;24.708;2023-07-31T11:20:31;98724.09;;;33.97;48.18
2681;BME280;1350;42.134;24.708;2023-07-31T11:22:59;98737.75;;;32.34;52.56
2681;BME280;1350;42.134;24.708;2023-07-31T11:25:28;98725.47;;;32.25;53.80
2681;BME280;1350;42.134;24.708;2023-07-31T11:27:55;98735.16;;;32.27;54.13
2681;BME280;1350;42.134;24.708;2023-07-31T11:30:22;98722.53;;;33.01;52.65
2681;BME280;1350;42.134;24.708;2023-07-31T11:32:49;98729.78;;;33.18;52.32
2681;BME280;1350;42.134;24.708;2023-07-31T11:35:18;98718.94;;;32.49;53.21
2681;BME280;1350;42.134;24.708;2023-07-31T11:37:45;98727.03;;;32.32;53.74
2681;BME280;1350;42.134;24.708;2023-07-31T11:40:12;98710.69;;;32.14;54.20
2681;BME280;1350;42.134;24.708;2023-07-31T11:42:39;98718.31;;;32.58;53.57
2681;BME280;1350;42.134;24.708;2023-07-31T11:45:07;98727.47;;;32.87;52.89
2681;BME280;1350;42.134;24.708;2023-07-31T11:47:35;98721.41;;;32.74;52.92
2681;BME280;1350;42.134;24.708;2023-07-31T11:50:03;98720.94;;;32.65;53.38
2681;BME280;1350;42.134;24.708;2023-07-31T11:52:35;98716.44;;;32.47;53.48
2681;BME280;1350;42.134;24.708;2023-07-31T11:55:05;98717.00;;;32.26;54.32
2681;BME280;1350;42.134;24.708;2023-07-31T11:57:32;98716.31;;;32.19;54.16
2681;BME280;1350;42.134;24.708;2023-07-31T11:59:59;98725.13;;;32.10;54.74
2681;BME280;1350;42.134;24.708;2023-07-31T12:02:27;98723.34;;;32.04;55.29
2681;BME280;1350;42.134;24.708;2023-07-31T12:04:53;98715.81;;;31.88;55.43
2681;BME280;1350;42.134;24.708;2023-07-31T12:07:20;98713.91;;;32.11;54.97
2681;BME280;1350;42.134;24.708;2023-07-31T12:09:52;98712.22;;;32.22;55.12
2681;BME280;1350;42.134;24.708;2023-07-31T12:12:20;98703.88;;;32.17;55.61
2681;BME280;1350;42.134;24.708;2023-07-31T12:14:47;98700.97;;;31.66;55.42
2681;BME280;1350;42.134;24.708;2023-07-31T12:17:17;98695.31;;;31.90;55.50
2681;BME280;1350;42.134;24.708;2023-07-31T12:19:45;98692.19;;;31.87;54.68
2681;BME280;1350;42.134;24.708;2023-07-31T12:22:12;98691.00;;;31.83;55.13
2681;BME280;1350;42.134;24.708;2023-07-31T12:24:39;98681.22;;;31.87;55.79
2681;BME280;1350;42.134;24.708;2023-07-31T12:27:12;98687.66;;;32.38;54.47
2681;BME280;1350;42.134;24.708;2023-07-31T12:29:39;98685.03;;;32.55;53.91
2681;BME280;1350;42.134;24.708;2023-07-31T12:32:19;98674.72;;;32.62;53.60
2681;BME280;1350;42.134;24.708;2023-07-31T12:34:46;98684.25;;;32.71;53.36
2681;BME280;1350;42.134;24.708;2023-07-31T12:37:13;98678.44;;;32.21;52.67
2681;BME280;1350;42.134;24.708;2023-07-31T12:39:40;98674.31;;;31.96;53.31
2681;BME280;1350;42.134;24.708;2023-07-31T12:42:06;98678.94;;;32.30;53.12
2681;BME280;1350;42.134;24.708;2023-07-31T12:44:34;98680.50;;;32.26;51.97
2681;BME280;1350;42.134;24.708;2023-07-31T12:47:01;98675.03;;;32.03;51.79
2681;BME280;1350;42.134;24.708;2023-07-31T12:49:28;98670.63;;;31.90;52.31
2681;BME280;1350;42.134;24.708;2023-07-31T12:51:55;98669.97;;;31.65;52.67
2681;BME280;1350;42.134;24.708;2023-07-31T12:54:21;98667.09;;;31.19;52.31
2681;BME280;1350;42.134;24.708;2023-07-31T12:56:48;98673.47;;;31.31;51.82
2681;BME280;1350;42.134;24.708;2023-07-31T12:59:15;98669.69;;;31.44;51.58
2681;BME280;1350;42.134;24.708;2023-07-31T13:01:43;98676.25;;;31.54;49.48
2681;BME280;1350;42.134;24.708;2023-07-31T13:04:10;98671.34;;;31.45;50.53
2681;BME280;1350;42.134;24.708;2023-07-31T13:06:36;98665.19;;;31.61;49.56
2681;BME280;1350;42.134;24.708;2023-07-31T13:09:03;98659.97;;;31.94;48.75
2681;BME280;1350;42.134;24.708;2023-07-31T13:11:30;98658.09;;;32.06;49.03